createdAt,value
2022-08-03T00:00:42.208Z,8.40
2022-08-03T00:03:11.333Z,10.50
2022-08-03T00:05:40.454Z,9.80
2022-08-03T00:08:29.461Z,10.00
2022-08-03T00:10:58.765Z,11.30
2022-08-03T00:13:28.270Z,10.20
2022-08-03T00:15:57.055Z,11.20
2022-08-03T00:18:26.130Z,8.60
2022-08-03T00:20:54.941Z,10.70
2022-08-03T00:23:23.833Z,8.30
2022-08-03T00:25:52.928Z,8.70
2022-08-03T00:28:21.718Z,10.70
2022-08-03T00:30:50.712Z,9.30
2022-08-03T00:33:19.809Z,8.20
2022-08-03T00:35:51.268Z,11.70
2022-08-03T00:38:21.176Z,10.30
2022-08-03T00:40:50.067Z,10.20
2022-08-03T00:43:19.163Z,8.50
2022-08-03T00:45:48.650Z,11.90
2022-08-03T00:48:33.104Z,8.80
2022-08-03T00:51:03.044Z,9.20
2022-08-03T00:53:32.650Z,10.20
2022-08-03T00:56:01.546Z,9.30
2022-08-03T00:58:30.433Z,10.60
2022-08-03T01:00:59.571Z,9.60
2022-08-03T01:03:28.728Z,9.60
2022-08-03T01:06:40.218Z,8.20
2022-08-03T01:09:29.389Z,9.20
2022-08-03T01:12:33.606Z,8.20
2022-08-03T01:15:43.663Z,9.10
2022-08-03T01:18:25.050Z,9.80
2022-08-03T01:20:58.153Z,8.90
2022-08-03T01:24:00.311Z,8.70
2022-08-03T01:26:56.748Z,9.50
2022-08-03T01:30:05.590Z,8.80
2022-08-03T01:33:00.917Z,8.40
2022-08-03T01:35:49.132Z,10.00
2022-08-03T01:38:30.003Z,10.60
2022-08-03T01:41:05.181Z,8.60
2022-08-03T01:44:27.324Z,10.30
2022-08-03T01:46:26.196Z,11.60
2022-08-03T01:48:56.737Z,10.90
2022-08-03T01:51:56.563Z,10.40
2022-08-03T01:54:16.059Z,9.50
2022-08-03T01:56:46.896Z,8.90
2022-08-03T01:59:19.444Z,10.10
2022-08-03T02:02:15.567Z,13.70
2022-08-03T02:04:39.413Z,12.20
2022-08-03T02:07:09.797Z,11.10
2022-08-03T02:09:41.325Z,15.80
2022-08-03T02:12:12.247Z,17.50
2022-08-03T02:14:44.625Z,16.10
2022-08-03T02:17:15.212Z,19.50
2022-08-03T02:19:45.352Z,17.60
2022-08-03T02:22:15.609Z,16.70
2022-08-03T02:24:51.058Z,18.30
2022-08-03T02:27:27.438Z,17.70
2022-08-03T02:30:12.498Z,15.80
2022-08-03T02:32:49.069Z,15.90
2022-08-03T02:35:21.610Z,12.30
2022-08-03T02:38:00.434Z,14.60
2022-08-03T02:40:32.142Z,12.80
2022-08-03T02:43:07.986Z,14.70
2022-08-03T02:45:45.658Z,10.90
2022-08-03T02:48:22.995Z,12.40
2022-08-03T02:50:55.237Z,11.00
2022-08-03T02:53:25.219Z,12.90
2022-08-03T02:55:57.141Z,14.30
2022-08-03T02:58:26.893Z,10.40
2022-08-03T03:00:57.272Z,12.40
2022-08-03T03:03:28.240Z,11.40
2022-08-03T03:06:01.555Z,10.00
2022-08-03T03:08:35.242Z,12.30
2022-08-03T03:11:05.951Z,13.40
2022-08-03T03:13:34.989Z,10.50
2022-08-03T03:16:08.569Z,14.10
2022-08-03T03:18:38.634Z,11.90
2022-08-03T03:21:10.617Z,12.10
2022-08-03T03:23:42.071Z,11.20
2022-08-03T03:26:13.512Z,13.40
2022-08-03T03:28:42.980Z,10.40
2022-08-03T03:31:12.385Z,14.50
2022-08-03T03:33:41.583Z,10.40
2022-08-03T03:36:10.884Z,15.70
2022-08-03T03:38:39.982Z,14.90
2022-08-03T03:41:10.101Z,14.30
2022-08-03T03:43:39.096Z,16.00
2022-08-03T03:46:08.499Z,13.50
2022-08-03T03:48:37.289Z,10.70
2022-08-03T03:51:07.496Z,11.70
2022-08-03T03:53:36.404Z,9.40
2022-08-03T03:56:05.601Z,10.10
2022-08-03T03:58:34.492Z,11.90
2022-08-03T04:01:03.613Z,12.50
2022-08-03T04:03:32.583Z,10.00
2022-08-03T04:06:20.214Z,9.70
2022-08-03T04:09:07.844Z,10.40
2022-08-03T04:11:58.958Z,13.60
2022-08-03T04:14:34.248Z,11.60
2022-08-03T04:17:07.596Z,11.60
2022-08-03T04:19:45.603Z,10.90
2022-08-03T04:22:19.905Z,12.00
2022-08-03T04:25:01.101Z,11.40
2022-08-03T04:27:37.468Z,12.80
2022-08-03T04:30:07.916Z,12.00
2022-08-03T04:32:39.302Z,10.60
2022-08-03T04:35:10.681Z,12.30
2022-08-03T04:37:52.386Z,14.70
2022-08-03T04:40:41.130Z,17.00
2022-08-03T04:43:14.042Z,10.80
2022-08-03T04:45:45.055Z,11.30
2022-08-03T04:48:15.739Z,11.40
2022-08-03T04:50:45.212Z,13.80
2022-08-03T04:53:14.206Z,13.30
2022-08-03T04:55:43.203Z,15.50
2022-08-03T04:58:13.010Z,13.40
2022-08-03T05:00:42.824Z,16.10
2022-08-03T05:03:23.505Z,11.80
2022-08-03T05:06:01.738Z,9.90
2022-08-03T05:08:46.063Z,11.10
2022-08-03T05:11:17.618Z,10.20
2022-08-03T05:13:46.821Z,10.20
2022-08-03T05:16:16.010Z,10.60
2022-08-03T05:18:46.390Z,9.60
2022-08-03T05:21:16.660Z,9.20
2022-08-03T05:23:45.673Z,10.70
2022-08-03T05:26:14.548Z,11.70
2022-08-03T05:28:51.038Z,10.40
2022-08-03T05:31:20.560Z,10.90
2022-08-03T05:33:49.821Z,10.30
2022-08-03T05:36:18.612Z,9.50
2022-08-03T05:38:47.399Z,11.00
2022-08-03T05:41:22.765Z,10.50
2022-08-03T05:43:55.525Z,10.40
2022-08-03T05:46:24.709Z,9.70
2022-08-03T05:48:53.670Z,11.10
2022-08-03T05:51:22.819Z,8.90
2022-08-03T05:53:51.706Z,9.70
2022-08-03T05:56:27.152Z,10.70
2022-08-03T05:58:56.146Z,9.10
2022-08-03T06:01:25.470Z,12.40
2022-08-03T06:03:54.338Z,9.60
2022-08-03T06:06:23.129Z,9.50
2022-08-03T06:08:52.226Z,9.20
2022-08-03T06:11:21.116Z,11.00
2022-08-03T06:13:50.007Z,10.30
2022-08-03T06:16:18.798Z,9.80
2022-08-03T06:18:48.199Z,11.70
2022-08-03T06:21:16.993Z,10.80
2022-08-03T06:23:54.193Z,11.80
2022-08-03T06:26:28.699Z,9.30
2022-08-03T06:28:57.696Z,10.00
2022-08-03T06:31:33.359Z,12.10
2022-08-03T06:34:31.011Z,11.20
2022-08-03T06:37:01.329Z,12.10
2022-08-03T06:39:31.147Z,10.00
2022-08-03T06:42:00.156Z,13.70
2022-08-03T06:44:29.033Z,15.50
2022-08-03T06:46:59.052Z,11.70
2022-08-03T06:49:28.303Z,13.10
2022-08-03T06:52:05.403Z,14.80
2022-08-03T06:54:36.803Z,14.10
2022-08-03T06:57:06.750Z,14.40
2022-08-03T07:00:08.177Z,12.50
2022-08-03T07:02:24.967Z,14.80
2022-08-03T07:04:57.536Z,14.20
2022-08-03T07:07:26.437Z,8.80
2022-08-03T07:09:57.852Z,8.60
2022-08-03T07:12:29.713Z,7.90
2022-08-03T07:15:02.694Z,8.40
2022-08-03T07:17:35.414Z,8.50
2022-08-03T07:20:08.052Z,7.90
2022-08-03T07:22:37.299Z,9.60
2022-08-03T07:25:07.031Z,7.90
2022-08-03T07:27:36.000Z,8.10
2022-08-03T07:30:08.517Z,8.60
2022-08-03T07:32:37.674Z,8.40
2022-08-03T07:35:24.294Z,7.50
2022-08-03T07:37:55.230Z,7.90
2022-08-03T07:40:25.109Z,7.70
2022-08-03T07:43:00.602Z,7.40
2022-08-03T07:45:31.533Z,11.40
2022-08-03T07:48:00.822Z,8.70
2022-08-03T07:50:29.724Z,11.50
2022-08-03T07:53:00.244Z,6.60
2022-08-03T07:55:30.627Z,7.30
2022-08-03T07:58:10.136Z,8.60
2022-08-03T08:00:39.242Z,6.80
2022-08-03T08:03:08.699Z,7.60
2022-08-03T08:05:38.116Z,8.70
2022-08-03T08:08:07.930Z,8.80
2022-08-03T08:10:37.333Z,8.00
2022-08-03T08:13:06.226Z,8.70
2022-08-03T08:15:35.118Z,7.30
2022-08-03T08:18:04.531Z,6.90
2022-08-03T08:20:38.214Z,7.80
2022-08-03T08:23:13.906Z,6.40
2022-08-03T08:25:58.331Z,7.20
2022-08-03T08:28:32.819Z,7.80
2022-08-03T08:31:03.282Z,7.30
2022-08-03T08:33:54.261Z,6.40
2022-08-03T08:36:21.989Z,7.10
2022-08-03T08:38:50.862Z,7.80
2022-08-03T08:41:19.799Z,7.10
2022-08-03T08:43:48.746Z,6.90
2022-08-03T08:46:23.953Z,8.80
2022-08-03T08:48:55.681Z,7.50
2022-08-03T08:51:54.866Z,7.20
2022-08-03T08:54:22.847Z,8.00
2022-08-03T08:56:53.846Z,7.30
2022-08-03T08:59:23.554Z,7.40
2022-08-03T09:01:57.055Z,7.00
2022-08-03T09:04:27.076Z,8.60
2022-08-03T09:07:18.829Z,7.70
2022-08-03T09:10:12.343Z,8.20
2022-08-03T09:12:44.719Z,9.10
2022-08-03T09:15:30.333Z,6.40
2022-08-03T09:18:02.861Z,6.40
2022-08-03T09:20:34.894Z,6.50
2022-08-03T09:23:44.497Z,9.20
2022-08-03T09:26:01.969Z,6.90
2022-08-03T09:29:00.595Z,7.70
2022-08-03T09:32:02.906Z,6.60
2022-08-03T09:34:33.433Z,5.90
2022-08-03T09:37:02.400Z,6.40
2022-08-03T09:39:41.078Z,6.40
2022-08-03T09:42:23.923Z,8.30
2022-08-03T09:44:53.579Z,7.30
2022-08-03T09:47:36.953Z,6.50
2022-08-03T09:50:13.728Z,6.20
2022-08-03T09:52:52.444Z,6.70
2022-08-03T09:56:34.257Z,6.70
2022-08-03T09:58:14.661Z,7.90
2022-08-03T10:01:05.792Z,8.80
2022-08-03T10:04:03.123Z,6.90
2022-08-03T10:06:29.899Z,5.90
2022-08-03T10:09:10.734Z,8.10
2022-08-03T10:11:42.426Z,7.00
2022-08-03T10:14:23.893Z,7.30
2022-08-03T10:16:52.683Z,6.50
2022-08-03T10:19:21.573Z,6.60
2022-08-03T10:21:56.030Z,5.90
2022-08-03T10:24:28.480Z,5.70
2022-08-03T10:27:08.829Z,7.00
2022-08-03T10:29:47.794Z,7.00
2022-08-03T10:32:32.113Z,6.70
2022-08-03T10:35:21.565Z,5.80
2022-08-03T10:38:02.559Z,6.80
2022-08-03T10:40:51.089Z,6.40
2022-08-03T10:43:26.346Z,5.80
2022-08-03T10:45:56.881Z,6.70
2022-08-03T10:48:26.704Z,5.90
2022-08-03T10:50:55.894Z,7.50
2022-08-03T10:53:40.753Z,6.60
2022-08-03T10:56:51.845Z,7.30
2022-08-03T10:59:47.266Z,6.20
2022-08-03T11:02:16.657Z,7.80
2022-08-03T11:04:48.123Z,5.90
2022-08-03T11:07:17.940Z,5.30
2022-08-03T11:09:53.369Z,6.20
2022-08-03T11:12:33.736Z,7.50
2022-08-03T11:15:08.986Z,6.20
2022-08-03T11:17:45.751Z,6.40
2022-08-03T11:20:56.417Z,6.10
2022-08-03T11:24:04.020Z,6.60
2022-08-03T11:26:35.365Z,5.80
2022-08-03T11:29:31.597Z,6.30
2022-08-03T11:32:00.388Z,5.70
2022-08-03T11:34:29.176Z,6.40
2022-08-03T11:37:31.374Z,6.20
2022-08-03T11:40:02.948Z,5.60
2022-08-03T11:42:35.686Z,6.20
2022-08-03T11:45:08.267Z,7.60
2022-08-03T11:47:50.987Z,7.00
2022-08-03T11:50:21.675Z,7.60
2022-08-03T11:52:51.413Z,5.50
2022-08-03T11:55:22.419Z,6.60
2022-08-03T11:59:19.012Z,6.20
2022-08-03T12:00:40.665Z,6.90
2022-08-03T12:03:13.980Z,5.80
2022-08-03T12:05:53.055Z,6.40
2022-08-03T12:08:28.201Z,7.50
2022-08-03T12:11:00.128Z,7.30
2022-08-03T12:14:44.308Z,5.40
2022-08-03T12:16:38.579Z,5.10
2022-08-03T12:19:08.613Z,6.10
2022-08-03T12:21:56.819Z,7.30
2022-08-03T12:24:29.025Z,6.20
2022-08-03T12:27:00.085Z,6.00
2022-08-03T12:29:29.577Z,5.50
2022-08-03T12:31:58.374Z,6.20
2022-08-03T12:34:47.808Z,4.90
2022-08-03T12:37:25.945Z,5.60
2022-08-03T12:40:09.632Z,7.50
2022-08-03T12:42:41.007Z,6.50
2022-08-03T12:45:32.966Z,5.20
2022-08-03T12:48:02.985Z,5.90
2022-08-03T12:50:34.690Z,6.70
2022-08-03T12:53:08.928Z,6.10
2022-08-03T12:55:57.651Z,6.30
2022-08-03T12:58:37.149Z,7.40
2022-08-03T13:01:09.472Z,6.50
2022-08-03T13:03:52.739Z,7.10
2022-08-03T13:06:25.739Z,6.30
2022-08-03T13:09:07.519Z,7.40
2022-08-03T13:11:55.693Z,6.00
2022-08-03T13:14:25.188Z,6.70
2022-08-03T13:16:54.180Z,7.70
2022-08-03T13:19:22.970Z,9.30
2022-08-03T13:21:53.848Z,6.00
2022-08-03T13:24:34.102Z,6.20
2022-08-03T13:28:04.928Z,6.00
2022-08-03T13:29:55.408Z,8.40
2022-08-03T13:32:24.761Z,6.70
2022-08-03T13:34:53.696Z,8.10
2022-08-03T13:37:23.093Z,6.00
2022-08-03T13:39:59.868Z,6.30
2022-08-03T13:42:32.594Z,6.50
2022-08-03T13:45:03.064Z,6.80
2022-08-03T13:47:32.389Z,6.40
2022-08-03T13:50:03.063Z,8.10
2022-08-03T13:52:35.640Z,6.60
2022-08-03T13:55:07.511Z,5.90
2022-08-03T13:58:04.794Z,7.30
2022-08-03T14:00:29.228Z,6.40
2022-08-03T14:03:16.583Z,6.70
2022-08-03T14:05:45.937Z,7.10
2022-08-03T14:08:15.550Z,9.30
2022-08-03T14:10:45.813Z,7.00
2022-08-03T14:13:17.800Z,6.30
2022-08-03T14:15:49.749Z,8.70
2022-08-03T14:18:28.608Z,6.30
2022-08-03T14:21:06.459Z,7.10
2022-08-03T14:23:38.202Z,6.90
2022-08-03T14:26:08.924Z,6.90
2022-08-03T14:28:38.112Z,5.40
2022-08-03T14:31:08.405Z,7.20
2022-08-03T14:33:56.579Z,6.80
2022-08-03T14:36:25.888Z,6.00
2022-08-03T14:38:57.094Z,5.60
2022-08-03T14:41:30.018Z,7.10
2022-08-03T14:44:01.871Z,5.70
2022-08-03T14:46:32.666Z,8.30
2022-08-03T14:50:34.333Z,5.50
2022-08-03T14:51:53.519Z,6.30
2022-08-03T14:54:23.861Z,9.60
2022-08-03T14:56:53.268Z,6.00
2022-08-03T14:59:22.264Z,5.90
2022-08-03T15:02:06.261Z,5.80
2022-08-03T15:04:37.964Z,5.90
2022-08-03T15:07:07.063Z,5.50
2022-08-03T15:09:36.158Z,6.90
2022-08-03T15:12:06.935Z,10.60
2022-08-03T15:14:35.987Z,5.50
2022-08-03T15:17:07.800Z,6.40
2022-08-03T15:20:03.978Z,6.00
2022-08-03T15:22:34.382Z,7.80
2022-08-03T15:26:27.917Z,5.70
2022-08-03T15:28:03.983Z,7.20
2022-08-03T15:30:36.498Z,7.10
2022-08-03T15:33:07.001Z,5.90
2022-08-03T15:35:36.545Z,5.40
2022-08-03T15:38:09.291Z,6.60
2022-08-03T15:40:38.738Z,5.50
2022-08-03T15:43:07.830Z,7.60
2022-08-03T15:45:37.386Z,5.60
2022-08-03T15:48:06.709Z,5.60
2022-08-03T15:50:35.631Z,5.90
2022-08-03T15:53:05.268Z,7.50
2022-08-03T15:55:34.232Z,6.60
2022-08-03T15:59:10.143Z,4.80
2022-08-03T16:00:51.990Z,6.20
2022-08-03T16:03:20.775Z,9.20
2022-08-03T16:05:49.767Z,6.80
2022-08-03T16:08:18.562Z,6.80
2022-08-03T16:10:48.587Z,7.70
2022-08-03T16:13:19.309Z,6.10
2022-08-03T16:15:49.005Z,7.30
2022-08-03T16:18:18.116Z,6.90
2022-08-03T16:20:47.417Z,7.20
2022-08-03T16:23:19.031Z,6.40
2022-08-03T16:25:49.475Z,6.50
2022-08-03T16:28:19.161Z,8.70
2022-08-03T16:30:48.311Z,6.90
2022-08-03T16:33:17.945Z,5.40
2022-08-03T16:35:50.085Z,6.70
2022-08-03T16:38:19.610Z,6.30
2022-08-03T16:40:52.325Z,7.20
2022-08-03T16:43:23.202Z,5.50
2022-08-03T16:45:53.110Z,13.50
2022-08-03T16:48:22.019Z,7.50
2022-08-03T16:50:51.012Z,7.10
2022-08-03T16:53:33.608Z,5.50
2022-08-03T16:56:11.035Z,7.10
2022-08-03T16:58:41.674Z,6.30
2022-08-03T17:01:24.182Z,6.60
2022-08-03T17:04:04.692Z,7.30
2022-08-03T17:06:44.765Z,8.40
2022-08-03T17:09:21.351Z,7.00
2022-08-03T17:11:52.039Z,6.20
2022-08-03T17:14:28.216Z,6.50
2022-08-03T17:17:04.046Z,6.50
2022-08-03T17:19:35.403Z,8.90
2022-08-03T17:22:15.974Z,6.60
2022-08-03T17:24:52.972Z,6.40
2022-08-03T17:28:49.759Z,13.90
2022-08-03T17:30:19.213Z,9.00
2022-08-03T17:32:52.407Z,14.20
2022-08-03T17:35:34.343Z,8.70
2022-08-03T17:38:10.523Z,9.30
2022-08-03T17:40:49.925Z,12.50
2022-08-03T17:44:13.510Z,13.50
2022-08-03T17:46:10.791Z,8.50
2022-08-03T17:48:41.940Z,9.10
2022-08-03T17:51:46.395Z,7.20
2022-08-03T17:54:27.118Z,8.30
2022-08-03T17:57:22.072Z,8.00
2022-08-03T18:00:28.790Z,6.80
2022-08-03T18:03:18.673Z,6.80
2022-08-03T18:06:11.106Z,7.20
2022-08-03T18:08:55.261Z,8.80
2022-08-03T18:11:35.579Z,6.60
2022-08-03T18:14:16.131Z,12.50
2022-08-03T18:16:52.864Z,6.80
2022-08-03T18:20:01.000Z,8.30
2022-08-03T18:22:13.720Z,8.90
2022-08-03T18:24:44.678Z,9.90
2022-08-03T18:27:16.230Z,10.80
2022-08-03T18:29:50.081Z,11.50
2022-08-03T18:32:21.129Z,12.80
2022-08-03T18:34:58.563Z,14.40
2022-08-03T18:37:28.641Z,22.40
2022-08-03T18:39:58.735Z,14.00
2022-08-03T18:42:28.984Z,11.40
2022-08-03T18:45:55.026Z,9.40
2022-08-03T18:48:09.229Z,11.50
2022-08-03T18:50:39.077Z,8.30
2022-08-03T18:54:01.877Z,9.60
2022-08-03T18:56:54.482Z,8.70
2022-08-03T18:59:31.233Z,10.00
2022-08-03T19:02:09.237Z,12.30
2022-08-03T19:04:48.151Z,10.60
2022-08-03T19:07:27.081Z,9.80
2022-08-03T19:10:11.386Z,10.60
2022-08-03T19:12:57.873Z,9.30
2022-08-03T19:15:36.587Z,9.60
2022-08-03T19:18:10.759Z,13.30
2022-08-03T19:20:41.665Z,12.40
2022-08-03T19:23:17.588Z,9.20
2022-08-03T19:25:47.112Z,11.80
2022-08-03T19:28:17.593Z,13.20
2022-08-03T19:30:53.611Z,10.40
2022-08-03T19:33:29.854Z,12.60
2022-08-03T19:35:59.266Z,14.80
2022-08-03T19:38:29.873Z,12.80
2022-08-03T19:41:04.041Z,16.80
2022-08-03T19:43:57.629Z,15.00
2022-08-03T19:46:31.600Z,14.60
2022-08-03T19:49:15.243Z,18.10
2022-08-03T19:52:02.618Z,21.20
2022-08-03T19:54:45.792Z,27.00
2022-08-03T19:57:27.453Z,19.50
2022-08-03T19:59:57.965Z,19.10
2022-08-03T20:02:29.637Z,21.20
2022-08-03T20:05:00.409Z,19.90
2022-08-03T20:07:34.428Z,20.30
2022-08-03T20:10:06.563Z,18.60
2022-08-03T20:12:39.318Z,18.10
2022-08-03T20:15:10.895Z,23.20
2022-08-03T20:17:56.418Z,20.50
2022-08-03T20:20:33.857Z,18.60
2022-08-03T20:23:11.792Z,21.40
2022-08-03T20:25:58.422Z,22.60
2022-08-03T20:28:50.115Z,18.10
2022-08-03T20:31:23.952Z,23.80
2022-08-03T20:34:01.530Z,21.80
2022-08-03T20:36:30.403Z,22.70
2022-08-03T20:38:59.813Z,20.30
2022-08-03T20:41:30.723Z,21.80
2022-08-03T20:44:02.164Z,27.10
2022-08-03T20:46:41.673Z,22.50
2022-08-03T20:49:23.163Z,21.10
2022-08-03T20:51:53.742Z,18.10
2022-08-03T20:54:30.737Z,19.70
2022-08-03T20:57:04.455Z,18.60
2022-08-03T20:59:51.244Z,20.10
2022-08-03T21:02:30.095Z,17.60
2022-08-03T21:05:03.767Z,17.00
2022-08-03T21:08:03.991Z,17.90
2022-08-03T21:10:33.482Z,19.60
2022-08-03T21:13:24.034Z,21.90
2022-08-03T21:16:07.073Z,20.60
2022-08-03T21:18:54.140Z,20.90
2022-08-03T21:21:24.272Z,19.20
2022-08-03T21:23:55.599Z,17.10
2022-08-03T21:26:27.757Z,18.50
2022-08-03T21:28:57.525Z,19.40
2022-08-03T21:31:27.394Z,17.80
2022-08-03T21:34:03.981Z,21.10
2022-08-03T21:36:36.423Z,27.80
2022-08-03T21:39:08.796Z,25.40
2022-08-03T21:41:40.269Z,22.90
2022-08-03T21:44:09.406Z,24.00
2022-08-03T21:46:41.575Z,24.50
2022-08-03T21:50:07.622Z,20.90
2022-08-03T21:52:07.091Z,19.90
2022-08-03T21:54:41.188Z,20.80
2022-08-03T21:57:25.884Z,22.70
2022-08-03T22:00:02.148Z,26.40
2022-08-03T22:02:32.378Z,23.40
2022-08-03T22:05:05.001Z,22.10
2022-08-03T22:07:35.257Z,16.60
2022-08-03T22:10:07.757Z,23.30
2022-08-03T22:12:37.002Z,16.10
2022-08-03T22:15:10.711Z,16.90
2022-08-03T22:17:55.786Z,15.30
2022-08-03T22:20:26.569Z,13.50
2022-08-03T22:23:02.345Z,16.50
2022-08-03T22:25:36.217Z,16.50
2022-08-03T22:28:12.795Z,17.00
2022-08-03T22:30:43.036Z,15.70
2022-08-03T22:33:13.223Z,18.60
2022-08-03T22:35:50.690Z,15.30
2022-08-03T22:38:19.729Z,17.80
2022-08-03T22:40:51.313Z,16.60
2022-08-03T22:43:28.053Z,18.90
2022-08-03T22:46:09.742Z,17.30
2022-08-03T22:48:41.826Z,13.20
2022-08-03T22:51:11.233Z,15.00
2022-08-03T22:53:41.130Z,16.30
2022-08-03T22:56:10.746Z,15.70
2022-08-03T22:58:39.636Z,17.60
2022-08-03T23:01:12.111Z,18.70
2022-08-03T23:04:00.151Z,14.60
2022-08-03T23:06:39.010Z,15.00
2022-08-03T23:09:14.471Z,16.60
2022-08-03T23:11:45.996Z,15.20
2022-08-03T23:14:18.969Z,16.60
2022-08-03T23:16:48.398Z,16.80
2022-08-03T23:19:25.309Z,13.90
2022-08-03T23:22:03.553Z,19.00
2022-08-03T23:24:38.348Z,15.10
2022-08-03T23:27:09.689Z,13.40
2022-08-03T23:29:42.832Z,15.70
2022-08-03T23:32:14.631Z,16.50
2022-08-03T23:35:03.165Z,15.80
2022-08-03T23:37:33.729Z,13.90
2022-08-03T23:40:29.233Z,12.90
2022-08-03T23:42:58.795Z,13.70
2022-08-03T23:45:28.493Z,15.50
2022-08-03T23:47:57.310Z,13.30
2022-08-03T23:50:33.914Z,14.10
2022-08-03T23:53:39.035Z,12.70
2022-08-03T23:56:21.520Z,13.40
2022-08-03T23:59:10.381Z,15.90
